West Poplarville, Mississippi
Current Conditions -  °F | °C
As of 7:53 AM on Friday 28 Nov 2014 (Local Time) from KHBG Reporting Station
Clear Clear  
Wind Chill:   Ceiling: Unl
Heat Index:   Visibility: 9mi
Dew Point:   Wind: 0mph
Humidity: 92%   Direction: NA
Pressure: 30.47"   Gusts: NA
Location:  30.8781°N, 89.5858°W
Report Text: KHBG 281353Z AUTO 00000KT 9SM CLR 02/01 A3047 RMK AO2 SLP316 T00170006
Loading
Personal Weather Stations






























Interactive Weather Map New forecast layout! Learn more

10-Day Weather Forecast

Advertisements
Track Severe Weather on mobile